Time;durP1;ratioP1;P1;durP2;ratioP2;P2;SDS_P1;SDS_P2;PMS_P1;PMS_P2;Temp;Humidity;BMP_temperature;BMP_pressure;BME280_temperature;BME280_humidity;BME280_pressure;Samples;Min_cycle;Max_cycle;Signal;HPM_P1;HPM_P2
2023/10/15 00:02:17;;;;;;;2.70;1.88;;;;;;;6.22;62.38;97004.72;6272046;28;20117;-66
2023/10/15 00:05:25;;;;;;;2.53;1.60;;;;;;;6.03;63.13;97009.94;6272122;28;20037;-67
2023/10/15 00:08:30;;;;;;;2.92;1.67;;;;;;;6.22;62.04;97010.78;6270289;28;20041;-67
2023/10/15 00:11:32;;;;;;;2.13;1.23;;;;;;;6.13;62.52;97005.16;6272121;28;20055;-67
2023/10/15 00:14:37;;;;;;;3.50;1.60;;;;;;;6.14;62.63;97012.91;6272127;28;20132;-67
2023/10/15 00:17:42;;;;;;;3.28;1.58;;;;;;;6.20;62.10;97020.50;6271994;28;20523;-66
2023/10/15 00:20:53;;;;;;;5.85;1.52;;;;;;;6.24;62.27;97014.19;6271589;28;20056;-66
2023/10/15 00:23:54;;;;;;;5.55;2.10;;;;;;;6.21;61.98;96993.44;6254093;28;20049;-67
2023/10/15 00:27:05;;;;;;;1.65;1.45;;;;;;;6.36;61.91;96994.50;6271062;28;20040;-67
2023/10/15 00:30:18;;;;;;;2.95;1.90;;;;;;;6.25;61.97;97005.44;6271065;28;20536;-68
2023/10/15 00:33:20;;;;;;;2.75;1.23;;;;;;;6.22;62.15;96997.72;6253752;28;20539;-66
2023/10/15 00:36:23;;;;;;;2.10;1.38;;;;;;;6.22;62.19;96995.13;6253264;28;20567;-66
2023/10/15 00:39:30;;;;;;;2.20;1.80;;;;;;;6.34;61.60;96992.84;6271169;28;20186;-67
2023/10/15 00:42:31;;;;;;;3.60;1.90;;;;;;;6.24;62.26;96998.50;6270574;28;20076;-67
2023/10/15 00:45:46;;;;;;;2.95;2.03;;;;;;;6.13;62.34;96990.31;6271090;28;20492;-66
2023/10/15 00:48:48;;;;;;;2.97;1.88;;;;;;;6.12;62.92;96993.84;6269985;28;20048;-67
2023/10/15 00:51:52;;;;;;;2.22;1.60;;;;;;;6.08;62.90;96984.44;6276021;28;20063;-66
2023/10/15 00:54:57;;;;;;;3.58;1.70;;;;;;;6.11;62.53;96992.16;6278378;28;20040;-67
2023/10/15 00:57:58;;;;;;;3.03;1.57;;;;;;;6.29;61.82;96996.56;6295628;28;20037;-67
2023/10/15 01:01:19;;;;;;;2.53;1.67;;;;;;;6.32;61.64;96992.09;6295458;28;20467;-66
2023/10/15 01:04:30;;;;;;;1.15;1.00;;;;;;;6.20;61.49;96996.09;6295334;28;20040;-67
2023/10/15 01:07:47;;;;;;;2.65;1.48;;;;;;;6.24;61.70;96998.50;6295360;28;20475;-67
2023/10/15 01:11:18;;;;;;;2.28;1.25;;;;;;;6.32;61.56;96990.34;6295010;28;20423;-66
2023/10/15 01:14:27;;;;;;;2.38;1.50;;;;;;;6.12;61.70;96983.41;6294476;28;20071;-67
2023/10/15 01:17:37;;;;;;;2.28;1.60;;;;;;;5.93;62.78;96993.81;6294877;28;20044;-66
2023/10/15 01:20:45;;;;;;;2.20;1.50;;;;;;;5.84;62.86;96997.66;6295011;28;20048;-66
2023/10/15 01:24:22;;;;;;;4.18;2.00;;;;;;;5.74;63.46;96978.06;6294904;28;20044;-67
2023/10/15 01:27:27;;;;;;;1.33;1.23;;;;;;;5.60;63.65;96990.88;6291176;28;20052;-66
2023/10/15 01:30:36;;;;;;;2.42;1.60;;;;;;;5.57;64.08;96986.63;6295126;28;20415;-66
2023/10/15 01:33:49;;;;;;;1.70;1.20;;;;;;;5.54;64.09;96980.72;6293993;28;20059;-66
2023/10/15 01:36:56;;;;;;;2.55;1.52;;;;;;;5.57;64.01;96985.78;6294664;28;20071;-67
2023/10/15 01:40:17;;;;;;;2.17;1.60;;;;;;;5.49;64.36;96985.28;6293388;28;20427;-67
2023/10/15 01:43:22;;;;;;;3.42;2.03;;;;;;;5.79;63.30;96985.72;6294223;28;20049;-67
2023/10/15 01:49:41;;;;;;;1.90;1.38;;;;;;;5.81;63.27;96978.69;6293865;28;20129;-68
2023/10/15 01:52:46;;;;;;;2.65;1.55;;;;;;;5.76;63.41;96986.69;6292918;28;20422;-67
2023/10/15 01:55:59;;;;;;;2.20;1.48;;;;;;;5.82;62.82;96985.59;6293796;28;20174;-67
2023/10/15 01:59:08;;;;;;;2.50;1.75;;;;;;;5.80;63.34;96982.19;6294426;28;20041;-66
2023/10/15 02:02:17;;;;;;;2.78;1.30;;;;;;;5.77;63.35;96993.59;6294223;28;20048;-68
2023/10/15 02:05:40;;;;;;;1.70;1.40;;;;;;;5.58;64.01;96988.34;6276891;28;20044;-68
2023/10/15 02:08:42;;;;;;;1.48;1.23;;;;;;;5.54;64.32;96978.09;6293385;28;20044;-67
2023/10/15 02:11:48;;;;;;;;;;;;;;;5.66;63.79;96969.72;6293550;28;20392;-67
2023/10/15 02:14:54;;;;;;;2.83;1.55;;;;;;;5.43;64.67;96964.66;6294521;28;19920;-67
2023/10/15 02:18:00;;;;;;;3.20;1.83;;;;;;;5.33;64.83;96956.41;6294057;28;20041;-66
2023/10/15 02:21:01;;;;;;;;;;;;;;;5.44;64.59;96950.72;6293987;28;20052;-66
2023/10/15 02:24:09;;;;;;;2.70;1.75;;;;;;;5.54;64.42;96959.84;6293845;28;20005;-67
2023/10/15 02:27:10;;;;;;;2.05;1.30;;;;;;;5.43;65.21;96952.47;6293179;28;20048;-67
2023/10/15 02:30:13;;;;;;;6.50;4.10;;;;;;;5.25;65.30;96948.88;6293999;28;20038;-67
2023/10/15 02:33:19;;;;;;;2.92;1.23;;;;;;;5.38;65.46;96955.28;6299196;28;20045;-67
2023/10/15 02:36:24;;;;;;;6.38;3.20;;;;;;;5.38;65.22;96968.34;6298318;28;20049;-67
2023/10/15 02:39:35;;;;;;;6.03;3.03;;;;;;;5.38;65.59;96970.94;6298510;28;20052;-68
2023/10/15 02:42:41;;;;;;;2.00;1.30;;;;;;;5.52;65.09;96967.75;6297942;28;20052;-67
2023/10/15 02:45:47;;;;;;;2.55;1.50;;;;;;;5.51;65.22;96980.84;6298873;28;20079;-66
2023/10/15 02:48:54;;;;;;;4.15;1.50;;;;;;;5.67;64.70;96974.06;6298566;28;20472;-68
2023/10/15 02:51:59;;;;;;;3.05;1.42;;;;;;;5.60;64.64;96981.31;6291803;28;20580;-68
2023/10/15 02:55:08;;;;;;;2.63;1.50;;;;;;;5.42;65.12;96978.63;6256266;28;20037;-67
2023/10/15 02:58:16;;;;;;;3.90;2.03;;;;;;;5.51;64.97;96967.78;6273611;28;20051;-68
2023/10/15 03:01:24;;;;;;;1.70;1.50;;;;;;;5.58;64.71;96987.50;6273467;28;20052;-67
2023/10/15 03:04:33;;;;;;;4.07;1.38;;;;;;;5.60;64.64;96980.44;6273177;28;20049;-67
2023/10/15 03:07:39;;;;;;;2.20;1.77;;;;;;;5.58;64.38;96979.69;6256834;28;20049;-67
2023/10/15 03:10:55;;;;;;;2.67;1.75;;;;;;;5.38;64.62;96984.00;6273244;28;20048;-68
2023/10/15 03:14:01;;;;;;;2.55;1.52;;;;;;;5.38;65.24;96991.81;6273059;28;20080;-67
2023/10/15 03:17:03;;;;;;;2.30;1.15;;;;;;;5.48;65.15;96988.81;6254964;28;20127;-67
2023/10/15 03:23:22;;;;;;;2.88;1.33;;;;;;;5.30;65.28;96983.47;6254910;28;20546;-66
2023/10/15 03:26:34;;;;;;;2.80;1.92;;;;;;;5.42;65.03;96996.91;6272708;28;20500;-68
2023/10/15 03:29:36;;;;;;;2.83;1.90;;;;;;;5.39;65.08;97009.16;6271503;28;20049;-67
2023/10/15 03:32:41;;;;;;;2.63;1.67;;;;;;;5.48;65.04;97007.91;6255534;28;20040;-67
2023/10/15 03:35:54;;;;;;;2.30;1.67;;;;;;;5.51;65.08;96999.13;6272091;28;20052;-66
2023/10/15 03:38:58;;;;;;;4.90;1.95;;;;;;;5.52;64.76;96988.63;6272504;28;20045;-67
2023/10/15 03:45:26;;;;;;;2.58;1.90;;;;;;;5.45;65.39;96983.72;6272814;28;20045;-67
2023/10/15 03:48:36;;;;;;;2.90;1.98;;;;;;;5.49;64.86;96987.88;6272324;28;20040;-66
2023/10/15 03:51:48;;;;;;;4.82;2.20;;;;;;;5.53;64.84;96992.06;6276846;28;20052;-66
2023/10/15 03:54:52;;;;;;;3.28;2.30;;;;;;;5.41;65.45;96990.84;6297102;28;20040;-66
2023/10/15 03:57:58;;;;;;;5.78;1.90;;;;;;;5.51;65.33;96986.06;6296478;28;20522;-67
2023/10/15 04:01:17;;;;;;;4.18;1.73;;;;;;;5.50;65.73;96987.84;6296091;28;20052;-67
2023/10/15 04:04:24;;;;;;;3.97;2.13;;;;;;;5.63;65.34;96990.75;6296955;28;20044;-67
2023/10/15 04:07:30;;;;;;;4.72;1.92;;;;;;;5.60;65.43;96985.66;6295989;28;20045;-68
2023/10/15 04:10:38;;;;;;;2.55;1.95;;;;;;;5.75;65.18;97005.91;6296949;28;20052;-68
2023/10/15 04:13:45;;;;;;;3.72;1.85;;;;;;;5.91;64.52;96994.78;6296612;28;20040;-67
2023/10/15 04:16:50;;;;;;;5.10;2.30;;;;;;;5.92;64.46;96980.81;6296268;28;20041;-67
2023/10/15 04:19:52;;;;;;;2.78;1.67;;;;;;;5.89;64.74;96989.63;6295955;28;20044;-66
2023/10/15 04:22:56;;;;;;;3.78;1.98;;;;;;;6.02;64.45;96992.56;6296473;28;20044;-67
2023/10/15 04:26:14;;;;;;;4.90;2.08;;;;;;;6.15;64.13;96993.72;6296353;28;20222;-67
2023/10/15 04:29:18;;;;;;;4.55;1.65;;;;;;;6.17;64.19;96991.91;6295252;28;20451;-67
2023/10/15 04:32:45;;;;;;;5.50;2.50;;;;;;;6.18;64.34;96993.56;6277938;28;20053;-66
2023/10/15 04:35:52;;;;;;;2.83;2.25;;;;;;;6.23;64.29;96991.59;6296450;28;20037;-68
2023/10/15 04:39:15;;;;;;;3.42;1.70;;;;;;;6.22;64.49;96989.06;6296128;28;20040;-67
2023/10/15 04:42:29;;;;;;;2.75;1.42;;;;;;;6.35;64.27;96994.56;6296054;28;20044;-67
2023/10/15 04:48:38;;;;;;;2.47;1.67;;;;;;;6.46;63.79;96984.47;6295823;28;20040;-67
2023/10/15 04:51:45;;;;;;;2.47;1.65;;;;;;;6.40;64.12;96996.06;6295423;28;20191;-67
2023/10/15 04:54:46;;;;;;;2.25;1.60;;;;;;;6.42;64.34;96975.91;6294412;28;20083;-68
2023/10/15 04:58:05;;;;;;;2.40;1.80;;;;;;;6.56;64.10;96970.03;6294566;28;20044;-67
2023/10/15 05:01:12;;;;;;;4.38;2.40;;;;;;;6.74;63.70;96970.94;6294443;28;20515;-67
2023/10/15 05:04:20;;;;;;;1.83;1.60;;;;;;;6.87;63.21;96966.78;6295520;28;20052;-68
2023/10/15 05:07:24;;;;;;;2.97;2.63;;;;;;;7.03;62.42;96966.91;6295410;28;20040;-67
2023/10/15 05:10:34;;;;;;;3.30;1.85;;;;;;;6.95;63.05;96969.03;6260283;28;20633;-67
2023/10/15 05:13:36;;;;;;;4.00;1.95;;;;;;;7.02;62.90;96975.69;6294735;28;20396;-68
2023/10/15 05:16:40;;;;;;;4.43;2.28;;;;;;;7.06;62.50;96971.16;6293358;28;20040;-67
2023/10/15 05:19:52;;;;;;;3.83;2.20;;;;;;;7.13;62.13;96968.16;6294909;28;20246;-67
2023/10/15 05:23:00;;;;;;;2.92;1.88;;;;;;;7.23;61.88;96957.22;6294958;28;20048;-68
2023/10/15 05:26:03;;;;;;;5.05;1.75;;;;;;;7.32;61.49;96962.00;6294380;28;20530;-67
2023/10/15 05:29:06;;;;;;;;;;;;;;;7.45;61.26;96957.84;6295105;28;20503;-67
2023/10/15 05:32:12;;;;;;;5.43;2.30;;;;;;;7.46;61.54;96959.50;6294675;28;20307;-67
2023/10/15 05:35:17;;;;;;;2.13;1.38;;;;;;;7.56;60.78;96966.00;6294317;28;20416;-68
2023/10/15 05:38:24;;;;;;;4.43;1.73;;;;;;;7.58;60.60;96953.63;6276634;28;20056;-67
2023/10/15 05:41:31;;;;;;;2.28;1.55;;;;;;;7.49;60.88;96951.50;6294444;28;20044;-67
2023/10/15 05:44:35;;;;;;;2.40;1.55;;;;;;;7.51;60.61;96936.56;6294548;28;20040;-67
2023/10/15 05:47:37;;;;;;;3.10;1.77;;;;;;;7.43;61.23;96912.56;6293900;28;20139;-67
2023/10/15 05:50:41;;;;;;;3.72;1.92;;;;;;;7.54;60.70;96918.09;6294010;28;20059;-67
2023/10/15 05:53:45;;;;;;;4.15;1.98;;;;;;;7.50;61.00;96927.03;6292898;28;20086;-67
2023/10/15 05:56:46;;;;;;;5.05;1.85;;;;;;;7.64;60.79;96921.91;6293650;28;20048;-67
2023/10/15 05:59:54;;;;;;;3.55;2.38;;;;;;;7.61;61.18;96922.09;6294348;28;20045;-67
2023/10/15 06:02:56;;;;;;;;;;;;;;;7.90;60.84;96931.94;6293967;28;20470;-68
2023/10/15 06:06:01;;;;;;;2.85;1.92;;;;;;;8.06;60.23;96925.78;6293930;28;19920;-67
2023/10/15 06:09:05;;;;;;;2.72;2.08;;;;;;;8.19;59.99;96925.13;6293129;28;20423;-67
2023/10/15 06:12:06;;;;;;;2.45;1.42;;;;;;;8.30;59.53;96915.75;6293667;28;20068;-67
2023/10/15 06:15:12;;;;;;;3.90;2.78;;;;;;;8.35;59.69;96910.28;6276580;28;20048;-67
2023/10/15 06:18:19;;;;;;;3.60;2.45;;;;;;;8.54;59.21;96902.22;6293875;28;20040;-67
2023/10/15 06:21:24;;;;;;;2.95;2.33;;;;;;;8.68;59.14;96910.16;6294040;28;20044;-67
2023/10/15 06:24:30;;;;;;;3.28;2.25;;;;;;;9.09;57.81;96893.00;6293811;28;20045;-67
2023/10/15 06:27:32;;;;;;;3.63;2.50;;;;;;;9.19;57.28;96888.88;6293239;28;20059;-67
2023/10/15 06:30:33;;;;;;;3.40;2.05;;;;;;;9.20;57.33;96890.59;6293933;28;20095;-67
2023/10/15 06:33:42;;;;;;;4.50;2.42;;;;;;;9.38;56.85;96873.72;6293849;28;20036;-67
2023/10/15 06:36:47;;;;;;;4.95;2.70;;;;;;;9.55;56.66;96885.00;6293613;28;20356;-68
2023/10/15 06:39:51;;;;;;;3.83;2.10;;;;;;;9.69;56.11;96892.88;6293590;28;20044;-67
2023/10/15 06:43:00;;;;;;;3.40;2.40;;;;;;;9.66;56.02;96877.31;6293403;28;20047;-67
2023/10/15 06:46:09;;;;;;;5.75;2.45;;;;;;;9.74;56.26;96885.56;6293604;28;20182;-67
2023/10/15 06:49:18;;;;;;;3.88;2.33;;;;;;;9.92;55.82;96903.78;6293581;28;20040;-67
2023/10/15 06:52:20;;;;;;;5.38;2.47;;;;;;;9.84;55.59;96891.94;6293339;28;20129;-66
2023/10/15 06:55:24;;;;;;;4.20;2.70;;;;;;;9.62;56.85;96896.81;6293523;28;20454;-67
2023/10/15 06:58:30;;;;;;;4.32;2.63;;;;;;;9.82;55.85;96887.69;6293669;28;20040;-67
2023/10/15 07:01:36;;;;;;;2.97;2.42;;;;;;;9.81;55.93;96892.13;6292534;28;20062;-67
2023/10/15 07:04:38;;;;;;;4.95;2.60;;;;;;;9.77;56.04;96884.53;6292480;28;20051;-67
2023/10/15 07:07:40;;;;;;;9.40;2.80;;;;;;;9.73;56.37;96894.38;6292516;28;20045;-67
2023/10/15 07:10:45;;;;;;;5.43;3.03;;;;;;;9.66;56.64;96888.66;6293087;28;20136;-67
2023/10/15 07:13:49;;;;;;;5.28;2.60;;;;;;;9.52;56.92;96890.44;6291740;28;20059;-66
2023/10/15 07:16:51;;;;;;;4.00;2.67;;;;;;;9.54;57.01;96880.66;6294596;28;20044;-67
2023/10/15 07:19:56;;;;;;;;;;;;;;;9.65;57.00;96878.22;6298237;28;20489;-66
2023/10/15 07:23:01;;;;;;;4.88;2.30;;;;;;;9.95;56.20;96878.13;6279892;28;19950;-67
2023/10/15 07:26:07;;;;;;;4.78;2.15;;;;;;;10.77;53.97;96850.97;6297575;28;20041;-67
2023/10/15 07:29:11;;;;;;;2.80;2.20;;;;;;;10.76;53.49;96853.72;6297548;28;20503;-68
2023/10/15 07:32:15;;;;;;;2.55;2.08;;;;;;;10.64;53.81;96873.75;6296533;28;20068;-67
2023/10/15 07:35:21;;;;;;;4.32;2.20;;;;;;;10.73;53.79;96854.75;6296696;28;20075;-67
2023/10/15 07:38:24;;;;;;;3.17;2.15;;;;;;;10.72;53.80;96853.06;6278025;28;20045;-67
2023/10/15 07:41:30;;;;;;;2.63;1.90;;;;;;;10.85;53.87;96847.00;6297563;28;20044;-67
2023/10/15 07:44:32;;;;;;;5.07;2.35;;;;;;;10.94;53.17;96835.84;6296481;28;20044;-66
2023/10/15 07:47:37;;;;;;;3.63;2.28;;;;;;;11.07;52.66;96843.75;6296340;28;20044;-67
2023/10/15 07:50:43;;;;;;;6.03;2.28;;;;;;;11.65;50.54;96843.25;6297100;28;20048;-66
2023/10/15 07:53:47;;;;;;;2.95;1.77;;;;;;;11.87;49.81;96825.97;6296195;28;20186;-67
2023/10/15 07:56:54;;;;;;;6.22;2.20;;;;;;;12.27;49.03;96817.84;6296641;28;20048;-66
2023/10/15 07:59:58;;;;;;;2.70;1.88;;;;;;;12.31;48.72;96827.19;6296244;28;20066;-67
2023/10/15 08:03:07;;;;;;;5.25;2.63;;;;;;;11.94;49.56;96829.84;6295819;28;20059;-67
2023/10/15 08:06:09;;;;;;;3.25;2.20;;;;;;;11.84;50.13;96831.44;6296184;28;20055;-68
2023/10/15 08:09:13;;;;;;;;;;;;;;;12.02;49.83;96842.50;6297181;28;20052;-67
2023/10/15 08:12:17;;;;;;;4.75;2.63;;;;;;;11.82;50.04;96822.78;6296629;28;20308;-67
2023/10/15 08:15:20;;;;;;;2.58;1.88;;;;;;;11.76;50.56;96839.03;6295796;28;20052;-67
2023/10/15 08:18:24;;;;;;;4.15;2.55;;;;;;;11.57;51.23;96813.09;6296365;28;20036;-67
2023/10/15 08:21:28;;;;;;;3.72;2.72;;;;;;;11.59;51.21;96827.88;6296574;28;20048;-67
2023/10/15 08:24:29;;;;;;;4.43;2.08;;;;;;;11.55;51.77;96826.41;6295692;28;20637;-67
2023/10/15 08:27:33;;;;;;;3.22;2.50;;;;;;;11.52;51.96;96826.63;6294891;28;20054;-67
2023/10/15 08:30:41;;;;;;;3.50;2.58;;;;;;;11.43;52.10;96833.34;6296024;28;20040;-66
2023/10/15 08:33:45;;;;;;;4.40;2.75;;;;;;;11.46;52.41;96825.25;6296149;28;20052;-66
2023/10/15 08:36:46;;;;;;;4.88;2.67;;;;;;;11.39;52.23;96808.19;6295178;28;20067;-68
2023/10/15 08:39:52;;;;;;;5.97;2.65;;;;;;;11.34;52.99;96833.16;6295644;28;20047;-67
2023/10/15 08:42:59;;;;;;;4.70;2.92;;;;;;;11.28;53.22;96844.94;6294927;28;20060;-67
2023/10/15 08:46:09;;;;;;;7.47;2.92;;;;;;;11.47;52.92;96839.28;6295170;28;20423;-67
2023/10/15 08:49:13;;;;;;;3.30;2.70;;;;;;;11.52;52.57;96837.16;6294979;28;20132;-68
2023/10/15 08:52:22;;;;;;;6.80;2.70;;;;;;;11.55;52.71;96844.84;6295617;28;20056;-66
2023/10/15 08:55:24;;;;;;;5.22;3.05;;;;;;;11.64;52.65;96833.66;6295556;28;20036;-66
2023/10/15 08:58:31;;;;;;;5.05;3.38;;;;;;;11.83;52.20;96845.53;6295062;28;20048;-67
2023/10/15 09:01:33;;;;;;;5.57;2.47;;;;;;;11.98;51.61;96812.88;6294553;28;20067;-66
2023/10/15 09:04:45;;;;;;;3.38;2.53;;;;;;;11.96;51.85;96822.69;6295498;28;20076;-68
2023/10/15 09:07:54;;;;;;;4.25;2.88;;;;;;;12.18;51.54;96807.97;6277652;28;20131;-68
2023/10/15 09:10:59;;;;;;;6.90;3.83;;;;;;;12.50;50.82;96809.06;6295074;28;20545;-67
2023/10/15 09:14:02;;;;;;;4.05;3.05;;;;;;;12.67;50.60;96804.34;6293145;28;20052;-67
2023/10/15 09:17:17;;;;;;;2.88;2.55;;;;;;;12.48;50.67;96795.16;6294882;28;20053;-66
2023/10/15 09:20:27;;;;;;;6.57;4.13;;;;;;;12.30;51.18;96778.88;6276846;28;20125;-67
2023/10/15 09:23:37;;;;;;;5.50;3.40;;;;;;;12.09;52.00;96781.28;6294471;28;20360;-67
2023/10/15 09:26:43;;;;;;;6.43;3.33;;;;;;;11.97;52.40;96774.25;6294885;28;20048;-67
2023/10/15 09:29:45;;;;;;;6.53;3.08;;;;;;;11.81;52.64;96768.38;6293788;28;20054;-67
2023/10/15 09:32:51;;;;;;;4.22;3.13;;;;;;;11.76;52.95;96767.88;6294795;28;20040;-66
2023/10/15 09:35:56;;;;;;;7.57;3.53;;;;;;;11.69;53.32;96773.56;6293845;28;20044;-67
2023/10/15 09:39:10;;;;;;;5.93;2.58;;;;;;;11.73;53.25;96757.53;6294237;28;20048;-67
2023/10/15 09:42:17;;;;;;;3.97;2.90;;;;;;;11.69;53.13;96759.53;6294595;28;20044;-67
2023/10/15 09:45:25;;;;;;;5.07;3.20;;;;;;;11.72;53.41;96775.16;6294434;28;20050;-67
2023/10/15 09:48:33;;;;;;;6.47;2.80;;;;;;;11.62;53.79;96764.41;6294257;28;20047;-67
2023/10/15 09:51:36;;;;;;;5.25;3.90;;;;;;;11.49;54.82;96776.75;6293845;28;20052;-67
2023/10/15 09:54:42;;;;;;;5.75;3.88;;;;;;;11.48;55.32;96782.97;6294331;28;20421;-67
2023/10/15 09:57:45;;;;;;;5.35;4.20;;;;;;;11.28;56.35;96786.16;6294331;28;20218;-67
2023/10/15 10:04:19;;;;;;;3.72;3.20;;;;;;;11.11;57.44;96795.22;6294321;28;20466;-66
2023/10/15 10:07:47;;;;;;;10.50;6.70;;;;;;;10.86;58.02;96796.03;6293010;28;20056;-66
2023/10/15 10:11:34;;;;;;;5.57;3.85;;;;;;;10.93;57.82;96787.63;6294050;28;20466;-67
2023/10/15 10:14:54;;;;;;;;;;;;;;;10.97;57.43;96785.63;6282292;28;20072;-66
2023/10/15 10:17:56;;;;;;;5.97;3.33;;;;;;;10.95;57.24;96790.13;6293128;28;20410;-67
2023/10/15 10:21:11;;;;;;;3.78;3.38;;;;;;;10.96;57.16;96786.56;6292934;28;20047;-67
2023/10/15 10:24:16;;;;;;;5.22;3.25;;;;;;;10.75;57.84;96778.31;6293600;28;20198;-67
2023/10/15 10:27:18;;;;;;;5.15;3.72;;;;;;;10.74;57.92;96779.28;6293334;28;20129;-67
2023/10/15 10:30:28;;;;;;;7.10;3.97;;;;;;;10.84;57.69;96787.38;6292819;28;20051;-67
2023/10/15 10:33:49;;;;;;;7.28;4.20;;;;;;;10.86;58.11;96791.59;6293391;28;20052;-67
2023/10/15 10:36:55;;;;;;;7.45;3.85;;;;;;;10.63;59.17;96802.84;6291809;28;20210;-67
2023/10/15 10:40:02;;;;;;;5.60;4.03;;;;;;;10.64;59.08;96791.34;6293633;28;20048;-67
2023/10/15 10:43:18;;;;;;;4.80;3.75;;;;;;;10.70;59.66;96802.34;6292679;28;20049;-67
2023/10/15 10:46:26;;;;;;;5.07;4.03;;;;;;;10.66;59.90;96800.84;6293745;28;20044;-67
2023/10/15 10:49:37;;;;;;;6.70;4.13;;;;;;;10.65;60.29;96804.41;6293700;28;20053;-67
2023/10/15 10:52:43;;;;;;;8.60;4.93;;;;;;;10.79;59.65;96806.97;6296607;28;20060;-67
2023/10/15 10:56:03;;;;;;;6.57;4.32;;;;;;;10.74;60.10;96811.69;6298080;28;20428;-67
2023/10/15 10:59:08;;;;;;;6.32;4.07;;;;;;;10.52;60.85;96787.75;6297294;28;20044;-68
2023/10/15 11:02:13;;;;;;;7.68;4.38;;;;;;;10.47;60.88;96795.97;6297411;28;20522;-68
2023/10/15 11:05:17;;;;;;;6.07;3.78;;;;;;;10.59;60.81;96780.28;6297187;28;20048;-68
2023/10/15 11:08:20;;;;;;;7.97;5.53;;;;;;;10.75;60.39;96789.69;6297071;28;20045;-68
2023/10/15 11:11:24;;;;;;;6.60;4.47;;;;;;;10.72;60.66;96789.06;6297038;28;21404;-68
2023/10/15 11:14:29;;;;;;;6.93;4.07;;;;;;;10.79;60.30;96796.44;6279908;28;20049;-67
2023/10/15 11:17:30;;;;;;;6.25;4.05;;;;;;;10.63;60.84;96794.94;6297387;28;20045;-68
2023/10/15 11:20:35;;;;;;;5.07;4.20;;;;;;;10.42;61.47;96791.94;6297644;28;20051;-68
2023/10/15 11:23:38;;;;;;;8.57;4.85;;;;;;;10.48;61.57;96808.16;6296979;28;20055;-67
2023/10/15 11:26:44;;;;;;;6.00;4.05;;;;;;;10.53;61.35;96805.22;6297750;28;20182;-67
2023/10/15 11:29:51;;;;;;;7.60;4.60;;;;;;;10.66;61.04;96803.47;6280435;28;20051;-67
2023/10/15 11:32:56;;;;;;;5.97;4.38;;;;;;;10.59;61.26;96799.56;6297550;28;20036;-68
2023/10/15 11:36:03;;;;;;;7.88;5.25;;;;;;;10.44;61.99;96790.88;6297367;28;20462;-67
2023/10/15 11:39:10;;;;;;;7.13;4.47;;;;;;;10.48;62.07;96796.81;6297460;28;20071;-67
2023/10/15 11:42:18;;;;;;;5.25;3.90;;;;;;;10.61;61.42;96797.66;6297596;28;20526;-67
2023/10/15 11:45:30;;;;;;;5.70;4.50;;;;;;;10.51;61.85;96792.16;6297340;28;20545;-67
2023/10/15 11:48:37;;;;;;;5.60;3.95;;;;;;;10.43;62.18;96798.88;6297760;28;20053;-67
2023/10/15 11:51:44;;;;;;;6.22;4.13;;;;;;;10.45;62.37;96786.47;6296931;28;20060;-66
2023/10/15 11:54:50;;;;;;;7.82;4.50;;;;;;;10.33;62.87;96796.88;6296357;28;20423;-68
2023/10/15 11:57:52;;;;;;;5.82;3.97;;;;;;;10.23;63.28;96784.38;6278564;28;20053;-68
2023/10/15 12:00:58;;;;;;;5.43;4.25;;;;;;;10.29;63.13;96808.50;6297073;28;20044;-67
2023/10/15 12:04:00;;;;;;;8.57;5.28;;;;;;;10.15;63.62;96826.09;6295871;28;20048;-67
2023/10/15 12:07:03;;;;;;;7.57;4.40;;;;;;;10.25;63.15;96821.94;6296539;28;20040;-67
2023/10/15 12:10:14;;;;;;;6.85;5.10;;;;;;;10.39;62.57;96848.22;6295508;28;20071;-67
2023/10/15 12:13:18;;;;;;;5.10;4.07;;;;;;;10.65;61.48;96846.53;6296222;28;20047;-66
2023/10/15 12:16:27;;;;;;;5.55;4.22;;;;;;;10.75;61.01;96850.22;6296715;28;20047;-66
2023/10/15 12:19:31;;;;;;;6.45;4.50;;;;;;;10.75;61.08;96857.28;6295678;28;20504;-66
2023/10/15 12:22:33;;;;;;;6.07;4.57;;;;;;;10.81;61.17;96856.03;6296213;28;20400;-67
2023/10/15 12:25:38;;;;;;;9.55;5.53;;;;;;;10.97;60.48;96859.34;6296597;28;20044;-67
2023/10/15 12:28:47;;;;;;;8.10;5.43;;;;;;;11.05;60.17;96857.03;6295760;28;20630;-67
2023/10/15 12:31:50;;;;;;;6.82;5.53;;;;;;;11.10;59.93;96859.38;6295290;28;20048;-68
2023/10/15 12:34:56;;;;;;;5.82;4.60;;;;;;;11.27;58.86;96864.34;6294765;28;20052;-68
2023/10/15 12:38:03;;;;;;;6.93;4.72;;;;;;;11.23;58.59;96855.78;6296077;28;20044;-67
2023/10/15 12:41:07;;;;;;;5.10;4.40;;;;;;;11.29;58.42;96866.84;6296487;28;20040;-67
2023/10/15 12:44:12;;;;;;;7.57;5.53;;;;;;;11.28;58.45;96847.56;6295875;28;20048;-66
2023/10/15 12:47:13;;;;;;;7.03;5.50;;;;;;;11.24;58.70;96852.22;6294864;28;20056;-67
2023/10/15 12:50:20;;;;;;;7.85;5.82;;;;;;;11.15;58.80;96855.47;6295475;28;20508;-66
2023/10/15 12:53:25;;;;;;;5.68;5.05;;;;;;;11.23;58.21;96853.16;6295193;28;20052;-67
2023/10/15 12:56:30;;;;;;;6.15;4.30;;;;;;;11.29;57.84;96854.53;6294633;28;20041;-66
2023/10/15 12:59:32;;;;;;;6.80;5.35;;;;;;;11.34;57.43;96855.06;6294978;28;20534;-67
2023/10/15 13:02:35;;;;;;;;;;;;;;;11.16;57.77;96857.16;6295708;28;20040;-67
2023/10/15 13:05:38;;;;;;;6.75;5.55;;;;;;;10.94;58.54;96862.19;6294738;28;19927;-66
2023/10/15 13:08:39;;;;;;;8.05;5.40;;;;;;;10.98;58.42;96853.13;6276025;28;20037;-67
2023/10/15 13:11:43;;;;;;;6.93;5.68;;;;;;;11.05;58.15;96870.22;6295017;28;20052;-67
2023/10/15 13:14:44;;;;;;;9.18;6.82;;;;;;;10.81;58.82;96871.81;6294150;28;20044;-67
2023/10/15 13:17:48;;;;;;;9.68;6.38;;;;;;;10.90;58.36;96865.94;6294657;28;20426;-67
2023/10/15 13:20:50;;;;;;;9.52;5.60;;;;;;;10.89;58.05;96874.78;6294430;28;20193;-66
2023/10/15 13:23:57;;;;;;;7.20;5.25;;;;;;;10.95;57.76;96874.38;6294129;28;20052;-67
2023/10/15 13:27:02;;;;;;;5.50;5.00;;;;;;;10.97;57.60;96877.75;6294107;28;20063;-68
2023/10/15 13:30:05;;;;;;;8.27;5.25;;;;;;;10.73;58.57;96875.81;6294606;28;20550;-66
2023/10/15 13:33:10;;;;;;;5.85;4.95;;;;;;;10.83;58.56;96869.94;6293841;28;20053;-68
2023/10/15 13:36:16;;;;;;;5.75;5.10;;;;;;;10.65;59.15;96877.25;6293416;28;20502;-68
2023/10/15 13:39:22;;;;;;;6.13;5.20;;;;;;;10.52;59.68;96883.28;6294226;28;20048;-66
2023/10/15 13:42:25;;;;;;;8.15;6.18;;;;;;;10.64;59.31;96884.28;6275861;28;20047;-67
2023/10/15 13:45:29;;;;;;;10.07;6.68;;;;;;;10.57;59.62;96883.00;6293917;28;20179;-66
2023/10/15 13:48:33;;;;;;;8.63;6.75;;;;;;;10.70;59.16;96881.28;6293496;28;20066;-67
2023/10/15 13:51:40;;;;;;;10.18;6.25;;;;;;;10.67;59.34;96892.00;6293956;28;20060;-67
2023/10/15 13:54:42;;;;;;;7.47;5.75;;;;;;;10.53;59.76;96899.91;6293576;28;20136;-68
2023/10/15 13:57:43;;;;;;;8.77;6.45;;;;;;;10.65;59.55;96899.16;6293274;28;20048;-67
2023/10/15 14:00:46;;;;;;;7.60;6.28;;;;;;;10.57;59.94;96898.78;6293346;28;20051;-67
2023/10/15 14:03:48;;;;;;;7.80;6.68;;;;;;;10.56;59.89;96903.22;6292454;28;20052;-67
2023/10/15 14:06:51;;;;;;;10.52;6.90;;;;;;;10.61;59.76;96897.66;6293220;28;20071;-68
2023/10/15 14:09:53;;;;;;;8.10;5.90;;;;;;;10.56;60.04;96899.75;6293604;28;20053;-67
2023/10/15 14:12:55;;;;;;;7.60;6.68;;;;;;;10.54;60.25;96907.72;6293884;28;20048;-67
2023/10/15 14:16:02;;;;;;;6.88;5.40;;;;;;;10.51;60.46;96901.81;6294011;28;20040;-67
2023/10/15 14:19:06;;;;;;;8.73;6.35;;;;;;;10.54;60.45;96907.72;6293235;28;20055;-68
2023/10/15 14:22:10;;;;;;;8.18;6.20;;;;;;;10.57;60.43;96911.94;6293670;28;20032;-67
2023/10/15 14:25:12;;;;;;;10.05;6.60;;;;;;;10.51;60.77;96912.34;6292791;28;20052;-67
2023/10/15 14:28:14;;;;;;;8.63;6.47;;;;;;;10.50;60.86;96915.91;6293046;28;20135;-66
2023/10/15 14:31:16;;;;;;;8.70;6.55;;;;;;;10.41;61.21;96927.03;6292609;28;20052;-67
2023/10/15 14:34:18;;;;;;;10.98;7.30;;;;;;;10.40;61.25;96925.34;6292914;28;20527;-67
2023/10/15 14:37:22;;;;;;;8.15;6.30;;;;;;;10.25;61.75;96916.59;6293781;28;20407;-68
2023/10/15 14:40:29;;;;;;;7.85;6.25;;;;;;;10.17;62.18;96919.72;6294098;28;20529;-67
2023/10/15 14:43:30;;;;;;;;;;;;;;;10.19;61.88;96917.84;6293077;28;20060;-67
2023/10/15 14:46:38;;;;;;;8.10;6.63;;;;;;;10.11;62.42;96925.34;6292530;28;19920;-66
2023/10/15 14:49:45;;;;;;;7.80;6.47;;;;;;;10.07;62.79;96934.34;6293574;28;20044;-67
2023/10/15 14:52:47;;;;;;;8.98;7.43;;;;;;;10.03;62.85;96938.97;6293010;28;20044;-68
2023/10/15 14:55:48;;;;;;;9.57;7.72;;;;;;;10.02;63.06;96942.53;6292062;28;20140;-69
2023/10/15 14:58:52;;;;;;;9.90;7.13;;;;;;;10.08;62.98;96936.06;6293540;28;20032;-66
2023/10/15 15:01:56;;;;;;;8.38;6.15;;;;;;;10.18;62.84;96942.41;6276040;28;20055;-68